createdAt,value
2023-04-25T00:01:44.507Z,97465.13
2023-04-25T00:04:15.445Z,97463.19
2023-04-25T00:06:45.956Z,97467.81
2023-04-25T00:09:18.698Z,97466.25
2023-04-25T00:11:48.926Z,97466.34
2023-04-25T00:14:19.108Z,97470.72
2023-04-25T00:16:49.500Z,97460.13
2023-04-25T00:19:19.944Z,97463.00
2023-04-25T00:21:50.240Z,97449.66
2023-04-25T00:24:23.209Z,97449.78
2023-04-25T00:26:53.388Z,97446.34
2023-04-25T00:29:23.620Z,97447.47
2023-04-25T00:31:54.203Z,97448.31
2023-04-25T00:34:24.446Z,97451.22
2023-04-25T00:36:54.659Z,97452.53
2023-04-25T00:39:27.495Z,97454.56
2023-04-25T00:42:01.801Z,97457.66
2023-04-25T00:44:33.300Z,97454.41
2023-04-25T00:47:04.702Z,97456.19
2023-04-25T00:49:35.580Z,97451.16
2023-04-25T00:52:05.851Z,97458.59
2023-04-25T00:54:38.727Z,97444.75
2023-04-25T00:57:09.320Z,97436.13
2023-04-25T00:59:40.052Z,97433.59
2023-04-25T01:02:10.838Z,97435.59
2023-04-25T01:04:41.782Z,97434.03
2023-04-25T01:07:12.590Z,97431.63
2023-04-25T01:09:45.685Z,97430.84
2023-04-25T01:12:16.454Z,97421.34
2023-04-25T01:14:46.616Z,97426.25
2023-04-25T01:17:17.130Z,97422.13
2023-04-25T01:19:47.344Z,97420.94
2023-04-25T01:22:20.559Z,97424.44
2023-04-25T01:24:50.980Z,97415.25
2023-04-25T01:27:21.976Z,97417.63
2023-04-25T01:29:52.782Z,97412.50
2023-04-25T01:32:23.936Z,97417.53
2023-04-25T01:34:54.370Z,97405.25
2023-04-25T01:37:27.167Z,97405.84
2023-04-25T01:39:57.548Z,97410.91
2023-04-25T01:42:27.773Z,97411.63
2023-04-25T01:44:57.960Z,97414.75
2023-04-25T01:47:28.710Z,97416.84
2023-04-25T01:49:59.756Z,97423.88
2023-04-25T01:52:32.519Z,97416.66
2023-04-25T01:55:03.490Z,97410.34
2023-04-25T01:57:36.805Z,97410.72
2023-04-25T02:00:10.042Z,97407.19
2023-04-25T02:02:42.984Z,97407.34
2023-04-25T02:05:40.278Z,97412.00
2023-04-25T02:08:16.007Z,97407.38
2023-04-25T02:10:46.276Z,97403.81
2023-04-25T02:13:22.396Z,97396.16
2023-04-25T02:16:01.622Z,97401.91
2023-04-25T02:18:32.475Z,97401.38
2023-04-25T02:21:04.013Z,97405.25
2023-04-25T02:23:37.119Z,97403.34
2023-04-25T02:26:07.534Z,97392.81
2023-04-25T02:28:37.863Z,97400.94
2023-04-25T02:31:08.885Z,97398.88
2023-04-25T02:33:39.127Z,97394.44
2023-04-25T02:36:10.498Z,97389.47
2023-04-25T02:38:43.313Z,97386.34
2023-04-25T02:41:13.484Z,97387.56
2023-04-25T02:43:43.640Z,97391.03
2023-04-25T02:46:14.405Z,97387.47
2023-04-25T02:48:44.721Z,97385.38
2023-04-25T02:51:15.145Z,97381.34
2023-04-25T02:53:48.458Z,97377.31
2023-04-25T02:56:18.839Z,97381.00
2023-04-25T02:58:49.072Z,97386.59
2023-04-25T03:01:19.432Z,97391.03
2023-04-25T03:03:49.997Z,97390.63
2023-04-25T03:06:21.136Z,97388.34
2023-04-25T03:08:54.183Z,97379.84
2023-04-25T03:11:24.434Z,97373.72
2023-04-25T03:13:54.750Z,97375.81
2023-04-25T03:16:25.133Z,97381.06
2023-04-25T03:18:55.391Z,97380.03
2023-04-25T03:21:26.330Z,97381.84
2023-04-25T03:23:59.427Z,97373.22
2023-04-25T03:26:29.788Z,97370.56
2023-04-25T03:29:00.062Z,97374.19
2023-04-25T03:31:30.574Z,97367.13
2023-04-25T03:34:00.892Z,97372.28
2023-04-25T03:36:31.328Z,97371.31
2023-04-25T03:39:04.117Z,97371.72
2023-04-25T03:41:35.702Z,97367.44
2023-04-25T03:44:10.566Z,97368.66
2023-04-25T03:46:40.871Z,97369.97
2023-04-25T03:49:11.127Z,97366.63
2023-04-25T03:51:59.476Z,97360.81
2023-04-25T03:54:32.366Z,97365.97
2023-04-25T03:57:22.932Z,97370.72
2023-04-25T03:59:53.122Z,97367.09
2023-04-25T04:02:23.639Z,97366.84
2023-04-25T04:04:57.340Z,97365.88
2023-04-25T04:07:27.882Z,97369.28
2023-04-25T04:10:03.563Z,97376.94
2023-04-25T04:12:39.758Z,97375.69
2023-04-25T04:15:11.033Z,97379.44
2023-04-25T04:17:41.859Z,97372.50
2023-04-25T04:20:12.835Z,97376.72
2023-04-25T04:22:44.240Z,97379.78
2023-04-25T04:25:19.655Z,97373.31
2023-04-25T04:28:17.302Z,97378.09
2023-04-25T04:31:05.089Z,97387.91
2023-04-25T04:33:35.929Z,97380.22
2023-04-25T04:36:08.770Z,97377.28
2023-04-25T04:38:41.858Z,97380.31
2023-04-25T04:41:17.416Z,97382.75
2023-04-25T04:44:15.216Z,97386.84
2023-04-25T04:47:11.873Z,97398.31
2023-04-25T04:50:00.765Z,97398.75
2023-04-25T04:52:42.948Z,97390.59
2023-04-25T04:55:33.424Z,97394.16
2023-04-25T04:58:34.437Z,97405.03
2023-04-25T05:01:17.158Z,97404.63
2023-04-25T05:04:06.650Z,97410.84
2023-04-25T05:06:48.758Z,97411.13
2023-04-25T05:09:20.392Z,97417.63
2023-04-25T05:12:10.952Z,97410.97
2023-04-25T05:14:56.370Z,97412.53
2023-04-25T05:17:55.875Z,97407.88
2023-04-25T05:20:49.135Z,97413.47
2023-04-25T05:23:29.069Z,97410.38
2023-04-25T05:26:19.620Z,97414.25
2023-04-25T05:29:28.412Z,97414.63
2023-04-25T05:32:13.153Z,97417.00
2023-04-25T05:34:43.437Z,97410.75
2023-04-25T05:37:23.310Z,97413.94
2023-04-25T05:40:02.630Z,97418.06
2023-04-25T05:42:59.053Z,97427.91
2023-04-25T05:45:49.586Z,97421.63
2023-04-25T05:48:48.757Z,97425.38
2023-04-25T05:51:42.070Z,97425.75
2023-04-25T05:54:30.577Z,97424.97
2023-04-25T05:57:01.157Z,97420.66
2023-04-25T05:59:31.385Z,97423.38
2023-04-25T06:02:02.031Z,97419.25
2023-04-25T06:04:38.216Z,97421.13
2023-04-25T06:07:09.434Z,97423.97
2023-04-25T06:09:40.730Z,97428.09
2023-04-25T06:12:10.970Z,97433.84
2023-04-25T06:14:41.687Z,97432.53
2023-04-25T06:17:11.998Z,97432.88
2023-04-25T06:19:44.788Z,97437.16
2023-04-25T06:22:16.154Z,97436.38
2023-04-25T06:24:46.988Z,97427.59
2023-04-25T06:27:17.270Z,97416.31
2023-04-25T06:29:47.689Z,97416.75
2023-04-25T06:32:19.247Z,97411.81
2023-04-25T06:34:52.221Z,97401.22
2023-04-25T06:37:22.451Z,97406.53
2023-04-25T06:39:54.569Z,97404.59
2023-04-25T06:42:24.935Z,97407.38
2023-04-25T06:45:02.460Z,97406.22
2023-04-25T06:47:34.066Z,97404.84
2023-04-25T06:50:08.916Z,97403.47
2023-04-25T06:52:40.154Z,97400.13
2023-04-25T06:55:10.856Z,97407.53
2023-04-25T06:57:59.549Z,97409.00
2023-04-25T07:00:56.029Z,97410.91
2023-04-25T07:03:28.629Z,97409.75
2023-04-25T07:06:06.257Z,97416.63
2023-04-25T07:08:36.647Z,97414.25
2023-04-25T07:11:07.009Z,97414.38
2023-04-25T07:13:37.693Z,97417.50
2023-04-25T07:16:08.220Z,97416.31
2023-04-25T07:18:39.767Z,97425.31
2023-04-25T07:21:12.741Z,97431.56
2023-04-25T07:23:44.293Z,97424.44
2023-04-25T07:26:18.826Z,97425.22
2023-04-25T07:29:19.171Z,97429.59
2023-04-25T07:31:49.481Z,97424.91
2023-04-25T07:34:19.814Z,97433.13
2023-04-25T07:36:52.736Z,97426.00
2023-04-25T07:39:24.345Z,97435.47
2023-04-25T07:41:55.631Z,97435.53
2023-04-25T07:44:31.516Z,97431.72
2023-04-25T07:47:03.909Z,97433.84
2023-04-25T07:49:34.790Z,97440.88
2023-04-25T07:52:09.169Z,97450.28
2023-04-25T07:54:41.802Z,97444.47
2023-04-25T07:57:19.747Z,97454.22
2023-04-25T07:59:51.545Z,97461.34
2023-04-25T08:02:22.631Z,97457.06
2023-04-25T08:04:53.683Z,97466.03
2023-04-25T08:07:27.800Z,97468.88
2023-04-25T08:10:00.298Z,97462.81
2023-04-25T08:12:35.893Z,97480.34
2023-04-25T08:15:08.298Z,97476.09
2023-04-25T08:17:41.670Z,97481.59
2023-04-25T08:20:12.478Z,97487.94
2023-04-25T08:22:46.085Z,97492.09
2023-04-25T08:25:30.837Z,97487.59
2023-04-25T08:28:03.873Z,97485.63
2023-04-25T08:30:34.363Z,97492.72
2023-04-25T08:33:04.921Z,97493.44
2023-04-25T08:36:01.344Z,97501.63
2023-04-25T08:38:35.515Z,97502.22
2023-04-25T08:41:08.945Z,97500.19
2023-04-25T08:43:39.598Z,97503.31
2023-04-25T08:46:10.007Z,97514.75
2023-04-25T08:48:49.361Z,97515.06
2023-04-25T08:51:26.801Z,97521.75
2023-04-25T08:54:06.805Z,97530.31
2023-04-25T08:56:40.334Z,97533.06
2023-04-25T08:59:11.464Z,97536.41
2023-04-25T09:01:42.132Z,97536.75
2023-04-25T09:04:12.597Z,97543.88
2023-04-25T09:06:45.054Z,97539.75
2023-04-25T09:09:18.631Z,97544.63
2023-04-25T09:11:48.878Z,97544.59
2023-04-25T09:14:21.693Z,97556.41
2023-04-25T09:17:09.044Z,97552.00
2023-04-25T09:19:48.190Z,97553.66
2023-04-25T09:22:36.389Z,97563.34
2023-04-25T09:25:12.305Z,97567.69
2023-04-25T09:27:53.280Z,97567.22
2023-04-25T09:30:33.467Z,97573.31
2023-04-25T09:33:12.268Z,97574.25
2023-04-25T09:35:46.858Z,97583.91
2023-04-25T09:38:25.132Z,97582.41
2023-04-25T09:40:57.984Z,97589.25
2023-04-25T09:43:43.065Z,97594.84
2023-04-25T09:46:14.834Z,97592.69
2023-04-25T09:48:52.140Z,97597.38
2023-04-25T09:51:29.966Z,97602.69
2023-04-25T09:54:02.715Z,97605.44
2023-04-25T09:56:46.173Z,97610.53
2023-04-25T09:59:16.901Z,97615.63
2023-04-25T10:01:47.720Z,97613.84
2023-04-25T10:04:33.859Z,97613.69
2023-04-25T10:07:09.133Z,97616.22
2023-04-25T10:09:41.164Z,97616.09
2023-04-25T10:12:14.496Z,97619.19
2023-04-25T10:24:08.119Z,97635.69
2023-04-25T10:26:38.564Z,97644.94
2023-04-25T10:29:13.141Z,97650.03
2023-04-25T10:31:49.312Z,97663.13
2023-04-25T10:34:19.840Z,97657.56
2023-04-25T10:36:53.339Z,97660.78
2023-04-25T10:39:27.450Z,97663.22
2023-04-25T10:41:59.798Z,97664.34
2023-04-25T10:44:33.636Z,97667.59
2023-04-25T10:47:06.873Z,97666.72
2023-04-25T10:49:37.660Z,97669.88
2023-04-25T10:52:21.320Z,97678.31
2023-04-25T10:54:52.392Z,97674.84
2023-04-25T10:57:32.560Z,97682.38
2023-04-25T11:00:19.606Z,97683.66
2023-04-25T11:02:51.271Z,97688.88
2023-04-25T11:05:25.190Z,97687.84
2023-04-25T11:08:06.596Z,97694.16
2023-04-25T11:10:39.072Z,97691.41
2023-04-25T11:13:09.529Z,97691.50
2023-04-25T11:15:42.317Z,97704.72
2023-04-25T11:18:12.608Z,97703.84
2023-04-25T11:20:42.878Z,97697.53
2023-04-25T11:23:13.139Z,97704.88
2023-04-25T11:25:43.360Z,97720.53
2023-04-25T11:28:13.623Z,97721.66
2023-04-25T11:30:51.601Z,97722.72
2023-04-25T11:33:26.484Z,97725.94
2023-04-25T11:35:57.764Z,97727.19
2023-04-25T11:38:29.517Z,97731.34
2023-04-25T11:41:01.118Z,97729.63
2023-04-25T11:43:32.553Z,97726.88
2023-04-25T11:46:10.120Z,97732.22
2023-04-25T11:48:41.084Z,97734.78
2023-04-25T11:51:11.582Z,97730.31
2023-04-25T11:53:44.725Z,97726.53
2023-04-25T11:56:15.618Z,97733.56
2023-04-25T11:58:58.573Z,97741.22
2023-04-25T12:01:35.514Z,97744.97
2023-04-25T12:04:16.286Z,97741.47
2023-04-25T12:06:48.696Z,97747.53
2023-04-25T12:09:19.993Z,97750.06
2023-04-25T12:11:51.249Z,97753.56
2023-04-25T12:14:25.505Z,97749.13
2023-04-25T12:16:59.325Z,97759.06
2023-04-25T12:19:30.354Z,97755.19
2023-04-25T12:22:00.860Z,97757.53
2023-04-25T12:24:31.470Z,97762.16
2023-04-25T12:27:07.009Z,97764.03
2023-04-25T12:29:49.357Z,97766.03
2023-04-25T12:32:23.078Z,97767.19
2023-04-25T12:34:53.563Z,97770.63
2023-04-25T12:37:23.815Z,97770.13
2023-04-25T12:39:54.387Z,97774.50
2023-04-25T12:42:24.642Z,97775.69
2023-04-25T12:44:54.868Z,97775.50
2023-04-25T12:47:27.695Z,97778.91
2023-04-25T12:49:57.949Z,97779.91
2023-04-25T12:52:28.141Z,97773.34
2023-04-25T12:54:58.530Z,97774.66
2023-04-25T12:57:28.753Z,97779.50
2023-04-25T12:59:58.966Z,97785.03
2023-04-25T13:02:31.978Z,97778.38
2023-04-25T13:05:02.280Z,97775.25
2023-04-25T13:07:34.090Z,97775.66
2023-04-25T13:10:06.897Z,97775.44
2023-04-25T13:12:37.601Z,97783.25
2023-04-25T13:15:10.439Z,97775.97
2023-04-25T13:17:43.421Z,97762.88
2023-04-25T13:20:14.932Z,97765.91
2023-04-25T13:22:46.868Z,97771.88
2023-04-25T13:25:17.666Z,97778.81
2023-04-25T13:27:48.015Z,97778.81
2023-04-25T13:30:18.693Z,97778.53
2023-04-25T13:32:51.552Z,97788.38
2023-04-25T13:35:22.003Z,97784.09
2023-04-25T13:37:52.406Z,97791.34
2023-04-25T13:40:24.663Z,97784.03
2023-04-25T13:42:55.869Z,97783.16
2023-04-25T13:45:26.175Z,97785.22
2023-04-25T13:47:59.077Z,97780.44
2023-04-25T13:50:29.518Z,97781.06
2023-04-25T13:52:59.902Z,97779.50
2023-04-25T13:55:30.326Z,97778.94
2023-04-25T13:58:01.035Z,97780.84
2023-04-25T14:00:32.569Z,97781.34
2023-04-25T14:03:09.210Z,97775.63
2023-04-25T14:05:41.424Z,97782.75
2023-04-25T14:08:12.209Z,97781.34
2023-04-25T14:10:42.470Z,97774.66
2023-04-25T14:13:12.679Z,97785.91
2023-04-25T14:15:42.977Z,97789.13
2023-04-25T14:18:15.940Z,97782.91
2023-04-25T14:20:46.415Z,97784.09
2023-04-25T14:23:16.647Z,97782.69
2023-04-25T14:25:46.857Z,97778.00
2023-04-25T14:28:17.106Z,97778.88
2023-04-25T14:30:47.406Z,97777.72
2023-04-25T14:33:20.234Z,97783.84
2023-04-25T14:35:50.658Z,97789.03
2023-04-25T14:38:24.234Z,97792.19
2023-04-25T14:40:55.092Z,97787.63
2023-04-25T14:43:25.343Z,97788.28
2023-04-25T14:45:58.179Z,97791.69
2023-04-25T14:48:31.444Z,97795.78
2023-04-25T14:51:02.083Z,97782.91
2023-04-25T14:53:32.651Z,97785.13
2023-04-25T14:56:03.182Z,97792.34
2023-04-25T14:58:35.054Z,97797.81
2023-04-25T15:01:05.588Z,97795.44
2023-04-25T15:03:38.793Z,97797.19
2023-04-25T15:06:10.052Z,97797.22
2023-04-25T15:08:40.342Z,97794.94
2023-04-25T15:11:12.114Z,97790.09
2023-04-25T15:13:42.642Z,97785.28
2023-04-25T15:16:13.901Z,97792.56
2023-04-25T15:18:46.794Z,97784.56
2023-04-25T15:21:17.368Z,97794.75
2023-04-25T15:23:47.644Z,97791.75
2023-04-25T15:26:18.003Z,97790.97
2023-04-25T15:28:48.365Z,97792.41
2023-04-25T15:31:18.604Z,97783.03
2023-04-25T15:33:51.758Z,97786.16
2023-04-25T15:36:22.696Z,97796.88
2023-04-25T15:38:53.154Z,97789.09
2023-04-25T15:41:23.465Z,97793.06
2023-04-25T15:43:53.985Z,97795.19
2023-04-25T15:46:24.647Z,97800.59
2023-04-25T15:48:57.693Z,97793.13
2023-04-25T15:51:28.341Z,97792.06
2023-04-25T15:53:59.101Z,97794.56
2023-04-25T15:56:29.457Z,97795.03
2023-04-25T15:58:59.752Z,97800.09
2023-04-25T16:01:31.313Z,97793.38
2023-04-25T16:04:04.492Z,97800.81
2023-04-25T16:06:35.008Z,97800.44
2023-04-25T16:09:06.817Z,97794.16
2023-04-25T16:11:37.059Z,97801.09
2023-04-25T16:14:07.366Z,97802.09
2023-04-25T16:16:37.706Z,97797.56
2023-04-25T16:19:11.188Z,97807.78
2023-04-25T16:21:42.212Z,97802.47
2023-04-25T16:24:12.813Z,97806.78
2023-04-25T16:26:43.818Z,97798.16
2023-04-25T16:29:14.840Z,97804.75
2023-04-25T16:31:47.305Z,97807.28
2023-04-25T16:34:21.447Z,97812.28
2023-04-25T16:36:51.748Z,97803.16
2023-04-25T16:39:22.519Z,97800.38
2023-04-25T16:41:52.794Z,97806.53
2023-04-25T16:44:23.019Z,97811.91
2023-04-25T16:46:53.333Z,97814.34
2023-04-25T16:49:26.578Z,97807.72
2023-04-25T16:51:56.909Z,97814.59
2023-04-25T16:54:27.459Z,97816.97
2023-04-25T16:56:58.360Z,97815.38
2023-04-25T16:59:28.629Z,97821.13
2023-04-25T17:01:58.920Z,97821.25
2023-04-25T17:04:32.021Z,97822.09
2023-04-25T17:07:02.493Z,97824.03
2023-04-25T17:09:33.113Z,97824.00
2023-04-25T17:12:03.870Z,97826.66
2023-04-25T17:14:36.180Z,97832.69
2023-04-25T17:17:07.167Z,97826.34
2023-04-25T17:19:40.320Z,97826.53
2023-04-25T17:22:10.581Z,97833.03
2023-04-25T17:24:40.938Z,97835.97
2023-04-25T17:27:11.283Z,97845.84
2023-04-25T17:29:41.510Z,97841.84
2023-04-25T17:32:13.279Z,97839.91
2023-04-25T17:34:48.334Z,97851.47
2023-04-25T17:37:19.058Z,97851.50
2023-04-25T17:39:49.296Z,97846.63
2023-04-25T17:42:19.545Z,97850.69
2023-04-25T17:44:49.844Z,97856.31
2023-04-25T17:47:20.398Z,97857.16
2023-04-25T17:49:53.340Z,97859.28
2023-04-25T17:52:24.041Z,97864.53
2023-04-25T17:54:54.377Z,97869.09
2023-04-25T17:57:25.463Z,97879.72
2023-04-25T17:59:56.368Z,97872.59
2023-04-25T18:02:27.302Z,97879.44
2023-04-25T18:05:00.483Z,97888.38
2023-04-25T18:07:30.740Z,97882.63
2023-04-25T18:10:01.061Z,97898.25
2023-04-25T18:12:31.438Z,97910.25
2023-04-25T18:15:02.102Z,97906.53
2023-04-25T18:17:32.352Z,97912.25
2023-04-25T18:20:06.874Z,97918.22
2023-04-25T18:22:37.182Z,97918.78
2023-04-25T18:25:09.914Z,97930.09
2023-04-25T18:27:40.290Z,97934.31
2023-04-25T18:30:11.652Z,97935.50
2023-04-25T18:32:42.367Z,97937.06
2023-04-25T18:35:15.587Z,97937.72
2023-04-25T18:37:45.868Z,97942.28
2023-04-25T18:40:16.623Z,97946.56
2023-04-25T18:42:47.047Z,97953.69
2023-04-25T18:45:17.554Z,97949.41
2023-04-25T18:47:48.150Z,97953.81
2023-04-25T18:50:23.386Z,97958.72
2023-04-25T18:52:54.406Z,97963.50
2023-04-25T18:55:24.872Z,97964.75
2023-04-25T18:57:55.176Z,97971.22
2023-04-25T19:00:25.508Z,97961.72
2023-04-25T19:02:58.091Z,97957.94
2023-04-25T19:05:31.535Z,97967.09
2023-04-25T19:08:02.575Z,97969.63
2023-04-25T19:10:33.109Z,97970.59
2023-04-25T19:13:03.455Z,97963.66
2023-04-25T19:15:34.062Z,97963.97
2023-04-25T19:18:05.309Z,97967.63
2023-04-25T19:20:38.514Z,97968.72
2023-04-25T19:23:09.185Z,97974.06
2023-04-25T19:25:39.662Z,97982.59
2023-04-25T19:28:13.006Z,97980.53
2023-04-25T19:30:43.270Z,97989.56
2023-04-25T19:33:14.211Z,97988.00
2023-04-25T19:35:47.338Z,97995.41
2023-04-25T19:38:17.774Z,97989.56
2023-04-25T19:40:48.868Z,97988.00
2023-04-25T19:43:19.335Z,97986.25
2023-04-25T19:45:49.964Z,97980.38
2023-04-25T19:48:20.210Z,97975.16
2023-04-25T19:50:53.115Z,97980.84
2023-04-25T19:53:23.348Z,97989.72
2023-04-25T19:55:53.572Z,97984.50
2023-04-25T19:58:24.065Z,97987.34
2023-04-25T20:00:54.303Z,97987.81
2023-04-25T20:03:24.694Z,97990.31
2023-04-25T20:05:57.667Z,98004.41
2023-04-25T20:08:28.254Z,98005.66
2023-04-25T20:10:58.518Z,98010.41
2023-04-25T20:13:28.767Z,98008.84
2023-04-25T20:16:01.996Z,98004.69
2023-04-25T20:18:32.897Z,98011.34
2023-04-25T20:21:05.725Z,98005.97
2023-04-25T20:23:35.940Z,98003.13
2023-04-25T20:26:06.718Z,98010.06
2023-04-25T20:28:37.361Z,98016.38
2023-04-25T20:31:07.895Z,98020.81
2023-04-25T20:33:38.763Z,98028.84
2023-04-25T20:36:12.055Z,98027.22
2023-04-25T20:38:42.270Z,98026.75
2023-04-25T20:41:12.503Z,98025.75
2023-04-25T20:43:42.755Z,98026.88
2023-04-25T20:46:13.234Z,98034.19
2023-04-25T20:48:43.489Z,98037.66
2023-04-25T20:51:16.816Z,98030.72
2023-04-25T20:53:47.006Z,98037.06
2023-04-25T20:56:17.241Z,98029.28
2023-04-25T20:58:47.591Z,98026.09
2023-04-25T21:01:18.729Z,98035.25
2023-04-25T21:03:50.233Z,98026.59
2023-04-25T21:06:23.165Z,98035.63
2023-04-25T21:08:53.693Z,98033.97
2023-04-25T21:11:24.253Z,98036.44
2023-04-25T21:13:54.596Z,98041.19
2023-04-25T21:16:25.134Z,98043.94
2023-04-25T21:18:55.477Z,98045.19
2023-04-25T21:21:28.357Z,98053.34
2023-04-25T21:23:58.620Z,98046.19
2023-04-25T21:26:28.828Z,98053.59
2023-04-25T21:28:59.139Z,98043.19
2023-04-25T21:31:29.597Z,98059.47
2023-04-25T21:33:59.974Z,98043.47
2023-04-25T21:36:33.084Z,98038.13
2023-04-25T21:39:05.631Z,98042.22
2023-04-25T21:41:37.615Z,98045.03
2023-04-25T21:44:07.937Z,98047.28
2023-04-25T21:46:38.306Z,98044.13
2023-04-25T21:49:09.224Z,98051.75
2023-04-25T21:51:42.090Z,98053.97
2023-04-25T21:54:12.292Z,98058.09
2023-04-25T21:56:42.552Z,98056.50
2023-04-25T21:59:13.085Z,98065.41
2023-04-25T22:01:43.637Z,98065.06
2023-04-25T22:04:14.171Z,98063.63
2023-04-25T22:06:47.353Z,98066.94
2023-04-25T22:09:17.854Z,98068.53
2023-04-25T22:11:48.259Z,98063.16
2023-04-25T22:14:18.643Z,98066.00
2023-04-25T22:16:50.025Z,98061.19
2023-04-25T22:19:20.272Z,98060.63
2023-04-25T22:21:53.060Z,98064.28
2023-04-25T22:24:28.315Z,98062.88
2023-04-25T22:26:59.408Z,98069.06
2023-04-25T22:29:29.667Z,98071.25
2023-04-25T22:32:00.043Z,98069.19
2023-04-25T22:34:30.392Z,98070.47
2023-04-25T22:37:03.543Z,98069.50
2023-04-25T22:39:33.853Z,98084.69
2023-04-25T22:42:05.282Z,98077.63
2023-04-25T22:44:36.837Z,98080.16
2023-04-25T22:47:07.207Z,98086.47
2023-04-25T22:49:37.758Z,98087.56
2023-04-25T22:52:11.250Z,98090.41
2023-04-25T22:54:42.079Z,98089.81
2023-04-25T22:57:12.373Z,98085.69
2023-04-25T22:59:42.908Z,98086.47
2023-04-25T23:02:13.823Z,98086.28
2023-04-25T23:04:44.807Z,98095.81
2023-04-25T23:07:18.024Z,98090.75
2023-04-25T23:09:48.220Z,98090.41
2023-04-25T23:12:20.009Z,98084.25
2023-04-25T23:14:52.055Z,98091.69
2023-04-25T23:17:22.586Z,98087.56
2023-04-25T23:19:52.830Z,98086.75
2023-04-25T23:22:25.655Z,98096.09
2023-04-25T23:24:56.113Z,98080.94
2023-04-25T23:27:26.326Z,98092.94
2023-04-25T23:29:58.112Z,98093.56
2023-04-25T23:32:28.863Z,98096.28
2023-04-25T23:34:59.231Z,98092.94
2023-04-25T23:37:32.886Z,98089.47
2023-04-25T23:40:06.221Z,98088.53
2023-04-25T23:42:36.805Z,98091.69
2023-04-25T23:45:07.806Z,98091.22
2023-04-25T23:47:38.177Z,98102.75
2023-04-25T23:50:09.376Z,98096.09
2023-04-25T23:52:42.257Z,98103.03
2023-04-25T23:55:12.685Z,98098.94
2023-04-25T23:57:44.610Z,98104.78
